sensor_id;sensor_type;location;lat;lon;timestamp;temperature;humidity
26035;DHT22;13809;48.632;11.576;2024-02-28T00:02:50;8.80;39.30
26035;DHT22;13809;48.632;11.576;2024-02-28T00:07:55;8.80;39.40
26035;DHT22;13809;48.632;11.576;2024-02-28T00:12:59;8.80;39.50
26035;DHT22;13809;48.632;11.576;2024-02-28T00:18:03;8.80;39.20
26035;DHT22;13809;48.632;11.576;2024-02-28T00:23:07;8.80;39.20
26035;DHT22;13809;48.632;11.576;2024-02-28T00:28:11;8.80;39.70
26035;DHT22;13809;48.632;11.576;2024-02-28T00:33:14;8.70;39.10
26035;DHT22;13809;48.632;11.576;2024-02-28T00:38:19;8.80;39.00
26035;DHT22;13809;48.632;11.576;2024-02-28T00:43:22;8.80;39.50
26035;DHT22;13809;48.632;11.576;2024-02-28T00:48:25;8.70;39.00
26035;DHT22;13809;48.632;11.576;2024-02-28T00:53:31;8.60;39.00
26035;DHT22;13809;48.632;11.576;2024-02-28T00:58:34;8.50;39.50
26035;DHT22;13809;48.632;11.576;2024-02-28T01:03:37;8.50;39.20
26035;DHT22;13809;48.632;11.576;2024-02-28T01:08:43;8.50;39.40
26035;DHT22;13809;48.632;11.576;2024-02-28T01:13:46;8.40;39.60
26035;DHT22;13809;48.632;11.576;2024-02-28T01:18:50;8.40;39.60
26035;DHT22;13809;48.632;11.576;2024-02-28T01:23:54;8.30;39.50
26035;DHT22;13809;48.632;11.576;2024-02-28T01:28:57;8.20;39.40
26035;DHT22;13809;48.632;11.576;2024-02-28T01:34:00;8.10;39.30
26035;DHT22;13809;48.632;11.576;2024-02-28T01:39:05;8.10;39.30
26035;DHT22;13809;48.632;11.576;2024-02-28T01:44:08;8.10;39.80
26035;DHT22;13809;48.632;11.576;2024-02-28T01:49:12;8.00;39.30
26035;DHT22;13809;48.632;11.576;2024-02-28T01:54:17;8.00;39.30
26035;DHT22;13809;48.632;11.576;2024-02-28T01:59:23;7.90;40.00
26035;DHT22;13809;48.632;11.576;2024-02-28T02:04:27;7.70;40.00
26035;DHT22;13809;48.632;11.576;2024-02-28T02:09:32;7.60;40.00
26035;DHT22;13809;48.632;11.576;2024-02-28T02:14:36;7.50;40.70
26035;DHT22;13809;48.632;11.576;2024-02-28T02:19:39;7.50;40.50
26035;DHT22;13809;48.632;11.576;2024-02-28T02:24:44;7.60;40.60
26035;DHT22;13809;48.632;11.576;2024-02-28T02:29:47;7.60;40.80
26035;DHT22;13809;48.632;11.576;2024-02-28T02:34:50;7.70;40.60
26035;DHT22;13809;48.632;11.576;2024-02-28T02:39:55;7.70;40.80
26035;DHT22;13809;48.632;11.576;2024-02-28T02:44:59;7.80;41.20
26035;DHT22;13809;48.632;11.576;2024-02-28T02:50:02;7.90;40.90
26035;DHT22;13809;48.632;11.576;2024-02-28T02:55:07;8.00;41.00
26035;DHT22;13809;48.632;11.576;2024-02-28T03:00:11;8.10;41.30
26035;DHT22;13809;48.632;11.576;2024-02-28T03:05:15;8.20;41.10
26035;DHT22;13809;48.632;11.576;2024-02-28T03:10:19;8.30;40.90
26035;DHT22;13809;48.632;11.576;2024-02-28T03:15:22;8.40;41.20
26035;DHT22;13809;48.632;11.576;2024-02-28T03:20:26;8.50;40.90
26035;DHT22;13809;48.632;11.576;2024-02-28T03:25:30;8.60;40.80
26035;DHT22;13809;48.632;11.576;2024-02-28T03:30:33;8.70;41.10
26035;DHT22;13809;48.632;11.576;2024-02-28T03:35:37;8.70;40.60
26035;DHT22;13809;48.632;11.576;2024-02-28T03:40:42;8.80;40.60
26035;DHT22;13809;48.632;11.576;2024-02-28T03:45:45;8.80;41.00
26035;DHT22;13809;48.632;11.576;2024-02-28T03:50:48;8.80;40.50
26035;DHT22;13809;48.632;11.576;2024-02-28T03:55:54;8.90;40.60
26035;DHT22;13809;48.632;11.576;2024-02-28T04:00:57;8.90;40.70
26035;DHT22;13809;48.632;11.576;2024-02-28T04:06:00;9.00;40.40
26035;DHT22;13809;48.632;11.576;2024-02-28T04:11:06;9.00;40.30
26035;DHT22;13809;48.632;11.576;2024-02-28T04:16:10;9.10;40.80
26035;DHT22;13809;48.632;11.576;2024-02-28T04:21:13;9.10;40.70
26035;DHT22;13809;48.632;11.576;2024-02-28T04:26:18;9.10;40.50
26035;DHT22;13809;48.632;11.576;2024-02-28T04:31:21;9.10;40.80
26035;DHT22;13809;48.632;11.576;2024-02-28T04:36:24;9.10;40.60
26035;DHT22;13809;48.632;11.576;2024-02-28T04:41:29;9.10;40.60
26035;DHT22;13809;48.632;11.576;2024-02-28T04:46:34;9.10;40.90
26035;DHT22;13809;48.632;11.576;2024-02-28T04:51:37;9.10;41.00
26035;DHT22;13809;48.632;11.576;2024-02-28T04:56:42;9.10;40.70
26035;DHT22;13809;48.632;11.576;2024-02-28T05:01:45;9.00;41.20
26035;DHT22;13809;48.632;11.576;2024-02-28T05:06:49;9.10;41.00
26035;DHT22;13809;48.632;11.576;2024-02-28T05:11:54;9.10;41.00
26035;DHT22;13809;48.632;11.576;2024-02-28T05:16:57;9.10;41.30
26035;DHT22;13809;48.632;11.576;2024-02-28T05:22:01;9.00;41.10
26035;DHT22;13809;48.632;11.576;2024-02-28T05:27:06;9.10;41.20
26035;DHT22;13809;48.632;11.576;2024-02-28T05:32:10;9.10;41.50
26035;DHT22;13809;48.632;11.576;2024-02-28T05:37:16;9.20;41.10
26035;DHT22;13809;48.632;11.576;2024-02-28T05:42:20;9.20;41.50
26035;DHT22;13809;48.632;11.576;2024-02-28T05:47:24;9.30;41.40
26035;DHT22;13809;48.632;11.576;2024-02-28T05:52:28;9.20;41.10
26035;DHT22;13809;48.632;11.576;2024-02-28T05:57:33;9.30;41.40
26035;DHT22;13809;48.632;11.576;2024-02-28T06:02:36;9.30;41.50
26035;DHT22;13809;48.632;11.576;2024-02-28T06:07:41;9.40;41.30
26035;DHT22;13809;48.632;11.576;2024-02-28T06:12:45;9.40;41.30
26035;DHT22;13809;48.632;11.576;2024-02-28T06:17:49;9.40;41.40
26035;DHT22;13809;48.632;11.576;2024-02-28T06:22:52;9.40;41.20
26035;DHT22;13809;48.632;11.576;2024-02-28T06:27:56;9.40;41.50
26035;DHT22;13809;48.632;11.576;2024-02-28T06:33:00;9.40;41.50
26035;DHT22;13809;48.632;11.576;2024-02-28T06:38:03;9.50;41.20
26035;DHT22;13809;48.632;11.576;2024-02-28T06:43:08;9.50;41.20
26035;DHT22;13809;48.632;11.576;2024-02-28T06:48:12;9.50;41.20
26035;DHT22;13809;48.632;11.576;2024-02-28T06:53:15;9.40;40.80
26035;DHT22;13809;48.632;11.576;2024-02-28T06:58:20;9.40;41.00
26035;DHT22;13809;48.632;11.576;2024-02-28T07:03:25;9.30;41.40
26035;DHT22;13809;48.632;11.576;2024-02-28T07:08:28;9.30;41.20
26035;DHT22;13809;48.632;11.576;2024-02-28T07:13:33;9.30;41.30
26035;DHT22;13809;48.632;11.576;2024-02-28T07:18:37;9.30;41.70
26035;DHT22;13809;48.632;11.576;2024-02-28T07:23:41;9.30;41.40
26035;DHT22;13809;48.632;11.576;2024-02-28T07:28:45;9.30;41.50
26035;DHT22;13809;48.632;11.576;2024-02-28T07:33:52;9.30;41.70
26035;DHT22;13809;48.632;11.576;2024-02-28T07:38:55;9.30;41.60
26035;DHT22;13809;48.632;11.576;2024-02-28T07:44:00;9.30;41.50
26035;DHT22;13809;48.632;11.576;2024-02-28T07:49:03;9.40;41.80
26035;DHT22;13809;48.632;11.576;2024-02-28T07:54:06;9.40;41.50
26035;DHT22;13809;48.632;11.576;2024-02-28T07:59:11;9.40;41.40
26035;DHT22;13809;48.632;11.576;2024-02-28T08:04:14;9.40;41.70
26035;DHT22;13809;48.632;11.576;2024-02-28T08:09:17;9.40;41.30
26035;DHT22;13809;48.632;11.576;2024-02-28T08:14:22;9.50;41.40
26035;DHT22;13809;48.632;11.576;2024-02-28T08:19:26;9.50;41.80
26035;DHT22;13809;48.632;11.576;2024-02-28T08:24:29;9.50;41.40
26035;DHT22;13809;48.632;11.576;2024-02-28T08:29:34;9.50;41.40
26035;DHT22;13809;48.632;11.576;2024-02-28T08:34:37;9.40;41.60
26035;DHT22;13809;48.632;11.576;2024-02-28T08:39:40;9.50;41.50
26035;DHT22;13809;48.632;11.576;2024-02-28T08:44:45;9.50;41.50
26035;DHT22;13809;48.632;11.576;2024-02-28T08:49:50;9.50;41.70
26035;DHT22;13809;48.632;11.576;2024-02-28T08:54:53;9.50;41.50
26035;DHT22;13809;48.632;11.576;2024-02-28T08:59:58;9.60;41.70
26035;DHT22;13809;48.632;11.576;2024-02-28T09:05:01;9.60;41.80
26035;DHT22;13809;48.632;11.576;2024-02-28T09:10:06;9.50;41.50
26035;DHT22;13809;48.632;11.576;2024-02-28T09:15:11;9.60;41.60
26035;DHT22;13809;48.632;11.576;2024-02-28T09:20:14;9.60;41.90
26035;DHT22;13809;48.632;11.576;2024-02-28T09:25:18;9.60;41.70
26035;DHT22;13809;48.632;11.576;2024-02-28T09:30:27;9.60;41.70
26035;DHT22;13809;48.632;11.576;2024-02-28T09:35:43;9.50;41.80
26035;DHT22;13809;48.632;11.576;2024-02-28T09:40:47;9.60;41.80
26035;DHT22;13809;48.632;11.576;2024-02-28T09:45:57;9.60;41.90
26035;DHT22;13809;48.632;11.576;2024-02-28T09:51:02;9.60;42.30
26035;DHT22;13809;48.632;11.576;2024-02-28T09:56:06;9.70;42.80
26035;DHT22;13809;48.632;11.576;2024-02-28T10:01:11;9.70;42.20
26035;DHT22;13809;48.632;11.576;2024-02-28T10:06:19;9.80;42.40
26035;DHT22;13809;48.632;11.576;2024-02-28T10:11:22;9.90;42.00
26035;DHT22;13809;48.632;11.576;2024-02-28T10:16:28;9.90;42.00
26035;DHT22;13809;48.632;11.576;2024-02-28T10:21:31;10.00;41.00
26035;DHT22;13809;48.632;11.576;2024-02-28T10:26:42;10.10;40.90
26035;DHT22;13809;48.632;11.576;2024-02-28T10:31:47;10.10;41.30
26035;DHT22;13809;48.632;11.576;2024-02-28T10:36:51;10.20;41.00
26035;DHT22;13809;48.632;11.576;2024-02-28T10:41:55;10.20;40.90
26035;DHT22;13809;48.632;11.576;2024-02-28T10:47:01;10.30;40.80
26035;DHT22;13809;48.632;11.576;2024-02-28T10:52:06;10.30;40.80
26035;DHT22;13809;48.632;11.576;2024-02-28T10:57:12;10.30;40.50
26035;DHT22;13809;48.632;11.576;2024-02-28T11:02:18;10.40;40.30
26035;DHT22;13809;48.632;11.576;2024-02-28T11:07:22;10.40;40.30
26035;DHT22;13809;48.632;11.576;2024-02-28T11:12:25;10.40;40.30
26035;DHT22;13809;48.632;11.576;2024-02-28T11:17:30;10.50;40.40
26035;DHT22;13809;48.632;11.576;2024-02-28T11:22:34;10.40;40.30
26035;DHT22;13809;48.632;11.576;2024-02-28T11:27:46;10.40;40.30
26035;DHT22;13809;48.632;11.576;2024-02-28T11:32:52;10.40;40.40
26035;DHT22;13809;48.632;11.576;2024-02-28T11:37:57;10.40;40.30
26035;DHT22;13809;48.632;11.576;2024-02-28T11:43:01;10.40;40.30
26035;DHT22;13809;48.632;11.576;2024-02-28T11:48:07;10.50;40.40
26035;DHT22;13809;48.632;11.576;2024-02-28T11:53:10;10.50;40.40
26035;DHT22;13809;48.632;11.576;2024-02-28T11:58:13;10.60;40.50
26035;DHT22;13809;48.632;11.576;2024-02-28T12:03:23;10.60;40.50
26035;DHT22;13809;48.632;11.576;2024-02-28T12:08:27;10.60;40.50
26035;DHT22;13809;48.632;11.576;2024-02-28T12:13:31;10.70;40.50
26035;DHT22;13809;48.632;11.576;2024-02-28T12:18:36;10.70;40.50
26035;DHT22;13809;48.632;11.576;2024-02-28T12:23:40;10.80;40.60
26035;DHT22;13809;48.632;11.576;2024-02-28T12:28:43;10.80;40.60
26035;DHT22;13809;48.632;11.576;2024-02-28T12:33:48;10.80;40.30
26035;DHT22;13809;48.632;11.576;2024-02-28T12:38:51;10.80;40.30
26035;DHT22;13809;48.632;11.576;2024-02-28T12:43:54;10.80;40.60
26035;DHT22;13809;48.632;11.576;2024-02-28T12:48:59;10.80;40.50
26035;DHT22;13809;48.632;11.576;2024-02-28T12:54:03;10.90;40.40
26035;DHT22;13809;48.632;11.576;2024-02-28T12:59:06;10.90;40.20
26035;DHT22;13809;48.632;11.576;2024-02-28T13:04:11;10.90;40.20
26035;DHT22;13809;48.632;11.576;2024-02-28T13:09:14;11.00;40.20
26035;DHT22;13809;48.632;11.576;2024-02-28T13:14:18;11.00;40.10
26035;DHT22;13809;48.632;11.576;2024-02-28T13:19:22;11.00;40.20
26035;DHT22;13809;48.632;11.576;2024-02-28T13:24:25;11.00;40.20
26035;DHT22;13809;48.632;11.576;2024-02-28T13:29:29;11.20;40.30
26035;DHT22;13809;48.632;11.576;2024-02-28T13:34:34;11.10;39.80
26035;DHT22;13809;48.632;11.576;2024-02-28T13:39:38;11.10;39.70
26035;DHT22;13809;48.632;11.576;2024-02-28T13:44:41;11.10;39.80
26035;DHT22;13809;48.632;11.576;2024-02-28T13:49:46;11.20;39.80
26035;DHT22;13809;48.632;11.576;2024-02-28T13:54:51;11.20;39.70
26035;DHT22;13809;48.632;11.576;2024-02-28T13:59:55;11.20;39.70
26035;DHT22;13809;48.632;11.576;2024-02-28T14:04:59;11.20;39.70
26035;DHT22;13809;48.632;11.576;2024-02-28T14:10:03;11.20;39.50
26035;DHT22;13809;48.632;11.576;2024-02-28T14:15:07;11.30;39.50
26035;DHT22;13809;48.632;11.576;2024-02-28T14:20:14;11.30;39.40
26035;DHT22;13809;48.632;11.576;2024-02-28T14:25:18;11.30;39.40
26035;DHT22;13809;48.632;11.576;2024-02-28T14:30:23;11.40;39.40
26035;DHT22;13809;48.632;11.576;2024-02-28T14:35:27;11.40;39.50
26035;DHT22;13809;48.632;11.576;2024-02-28T14:40:31;11.40;39.40
26035;DHT22;13809;48.632;11.576;2024-02-28T14:45:34;11.40;39.20
26035;DHT22;13809;48.632;11.576;2024-02-28T14:50:42;11.40;39.10
26035;DHT22;13809;48.632;11.576;2024-02-28T14:55:46;11.40;39.00
26035;DHT22;13809;48.632;11.576;2024-02-28T15:00:49;11.40;39.00
26035;DHT22;13809;48.632;11.576;2024-02-28T15:05:54;11.40;39.00
26035;DHT22;13809;48.632;11.576;2024-02-28T15:10:57;11.40;38.90
26035;DHT22;13809;48.632;11.576;2024-02-28T15:16:00;11.40;38.90
26035;DHT22;13809;48.632;11.576;2024-02-28T15:21:07;11.40;39.00
26035;DHT22;13809;48.632;11.576;2024-02-28T15:26:10;11.30;38.90
26035;DHT22;13809;48.632;11.576;2024-02-28T15:31:13;11.40;39.50
26035;DHT22;13809;48.632;11.576;2024-02-28T15:36:18;11.40;39.10
26035;DHT22;13809;48.632;11.576;2024-02-28T15:41:22;11.40;39.00
26035;DHT22;13809;48.632;11.576;2024-02-28T15:46:26;11.40;39.60
26035;DHT22;13809;48.632;11.576;2024-02-28T15:51:30;11.40;39.20
26035;DHT22;13809;48.632;11.576;2024-02-28T15:56:34;11.40;38.90
26035;DHT22;13809;48.632;11.576;2024-02-28T16:01:38;11.40;39.10
26035;DHT22;13809;48.632;11.576;2024-02-28T16:06:43;11.40;39.10
26035;DHT22;13809;48.632;11.576;2024-02-28T16:11:46;11.50;39.50
26035;DHT22;13809;48.632;11.576;2024-02-28T16:16:50;11.50;39.10
26035;DHT22;13809;48.632;11.576;2024-02-28T16:21:55;11.50;39.00
26035;DHT22;13809;48.632;11.576;2024-02-28T16:26:58;11.50;39.80
26035;DHT22;13809;48.632;11.576;2024-02-28T16:32:01;11.50;40.00
26035;DHT22;13809;48.632;11.576;2024-02-28T16:37:06;11.50;41.30
26035;DHT22;13809;48.632;11.576;2024-02-28T16:42:10;11.60;40.00
26035;DHT22;13809;48.632;11.576;2024-02-28T16:47:13;11.80;39.50
26035;DHT22;13809;48.632;11.576;2024-02-28T16:52:17;11.80;39.40
26035;DHT22;13809;48.632;11.576;2024-02-28T16:57:21;11.80;39.20
26035;DHT22;13809;48.632;11.576;2024-02-28T17:02:24;11.80;39.30
26035;DHT22;13809;48.632;11.576;2024-02-28T17:07:29;11.80;39.10
26035;DHT22;13809;48.632;11.576;2024-02-28T17:12:32;11.90;39.10
26035;DHT22;13809;48.632;11.576;2024-02-28T17:17:35;11.90;40.00
26035;DHT22;13809;48.632;11.576;2024-02-28T17:22:40;11.90;39.40
26035;DHT22;13809;48.632;11.576;2024-02-28T17:27:43;12.00;39.10
26035;DHT22;13809;48.632;11.576;2024-02-28T17:32:47;12.00;39.10
26035;DHT22;13809;48.632;11.576;2024-02-28T17:37:52;12.00;38.90
26035;DHT22;13809;48.632;11.576;2024-02-28T17:42:55;12.00;38.80
26035;DHT22;13809;48.632;11.576;2024-02-28T17:47:58;12.00;38.70
26035;DHT22;13809;48.632;11.576;2024-02-28T17:53:03;12.00;38.70
26035;DHT22;13809;48.632;11.576;2024-02-28T17:58:07;11.90;38.50
26035;DHT22;13809;48.632;11.576;2024-02-28T18:03:12;11.90;38.60
26035;DHT22;13809;48.632;11.576;2024-02-28T18:08:16;11.90;38.60
26035;DHT22;13809;48.632;11.576;2024-02-28T18:13:21;11.80;38.40
26035;DHT22;13809;48.632;11.576;2024-02-28T18:18:24;11.70;38.30
26035;DHT22;13809;48.632;11.576;2024-02-28T18:23:28;11.70;38.30
26035;DHT22;13809;48.632;11.576;2024-02-28T18:28:36;11.70;38.50
26035;DHT22;13809;48.632;11.576;2024-02-28T18:33:39;11.60;38.60
26035;DHT22;13809;48.632;11.576;2024-02-28T18:38:45;11.60;38.60
26035;DHT22;13809;48.632;11.576;2024-02-28T18:43:48;11.60;38.60
26035;DHT22;13809;48.632;11.576;2024-02-28T18:48:51;11.60;38.80
26035;DHT22;13809;48.632;11.576;2024-02-28T18:53:56;11.60;38.60
26035;DHT22;13809;48.632;11.576;2024-02-28T18:59:03;11.60;38.60
26035;DHT22;13809;48.632;11.576;2024-02-28T19:04:07;11.50;38.60
26035;DHT22;13809;48.632;11.576;2024-02-28T19:09:13;11.50;38.70
26035;DHT22;13809;48.632;11.576;2024-02-28T19:14:16;11.50;38.70
26035;DHT22;13809;48.632;11.576;2024-02-28T19:19:21;11.50;38.70
26035;DHT22;13809;48.632;11.576;2024-02-28T19:24:26;11.50;38.60
26035;DHT22;13809;48.632;11.576;2024-02-28T19:29:29;11.50;38.70
26035;DHT22;13809;48.632;11.576;2024-02-28T19:34:33;11.50;38.70
26035;DHT22;13809;48.632;11.576;2024-02-28T19:39:38;11.50;38.50
26035;DHT22;13809;48.632;11.576;2024-02-28T19:44:41;11.40;38.20
26035;DHT22;13809;48.632;11.576;2024-02-28T19:49:48;11.40;38.40
26035;DHT22;13809;48.632;11.576;2024-02-28T19:54:53;11.30;38.40
26035;DHT22;13809;48.632;11.576;2024-02-28T19:59:57;11.30;38.50
26035;DHT22;13809;48.632;11.576;2024-02-28T20:05:00;11.20;38.50
26035;DHT22;13809;48.632;11.576;2024-02-28T20:10:07;11.20;38.60
26035;DHT22;13809;48.632;11.576;2024-02-28T20:15:17;11.20;38.70
26035;DHT22;13809;48.632;11.576;2024-02-28T20:20:23;11.20;38.60
26035;DHT22;13809;48.632;11.576;2024-02-28T20:25:27;11.20;38.40
26035;DHT22;13809;48.632;11.576;2024-02-28T20:30:31;11.20;38.60
26035;DHT22;13809;48.632;11.576;2024-02-28T20:35:34;11.10;38.50
26035;DHT22;13809;48.632;11.576;2024-02-28T20:40:39;11.10;38.60
26035;DHT22;13809;48.632;11.576;2024-02-28T20:45:43;11.10;38.80
26035;DHT22;13809;48.632;11.576;2024-02-28T20:50:47;11.00;38.70
26035;DHT22;13809;48.632;11.576;2024-02-28T20:55:51;11.00;38.60
26035;DHT22;13809;48.632;11.576;2024-02-28T21:00:58;11.00;38.60
26035;DHT22;13809;48.632;11.576;2024-02-28T21:06:02;11.00;38.70
26035;DHT22;13809;48.632;11.576;2024-02-28T21:11:07;11.00;38.80
26035;DHT22;13809;48.632;11.576;2024-02-28T21:16:10;11.00;38.80
26035;DHT22;13809;48.632;11.576;2024-02-28T21:21:15;11.00;38.80
26035;DHT22;13809;48.632;11.576;2024-02-28T21:26:19;11.00;38.80
26035;DHT22;13809;48.632;11.576;2024-02-28T21:31:22;11.00;38.90
26035;DHT22;13809;48.632;11.576;2024-02-28T21:36:26;10.90;38.80
26035;DHT22;13809;48.632;11.576;2024-02-28T21:41:31;11.00;38.90
26035;DHT22;13809;48.632;11.576;2024-02-28T21:46:34;10.90;38.80
26035;DHT22;13809;48.632;11.576;2024-02-28T21:51:37;10.90;38.70
26035;DHT22;13809;48.632;11.576;2024-02-28T21:56:43;10.90;38.90
26035;DHT22;13809;48.632;11.576;2024-02-28T22:01:46;10.90;38.80
26035;DHT22;13809;48.632;11.576;2024-02-28T22:06:50;10.80;38.80
26035;DHT22;13809;48.632;11.576;2024-02-28T22:11:55;10.80;38.60
26035;DHT22;13809;48.632;11.576;2024-02-28T22:16:58;10.70;38.60
26035;DHT22;13809;48.632;11.576;2024-02-28T22:22:01;10.60;38.90
26035;DHT22;13809;48.632;11.576;2024-02-28T22:27:06;10.50;39.10
26035;DHT22;13809;48.632;11.576;2024-02-28T22:32:09;10.50;39.40
26035;DHT22;13809;48.632;11.576;2024-02-28T22:37:12;10.50;39.20
26035;DHT22;13809;48.632;11.576;2024-02-28T22:42:17;10.50;39.10
26035;DHT22;13809;48.632;11.576;2024-02-28T22:47:20;10.50;39.30
26035;DHT22;13809;48.632;11.576;2024-02-28T22:52:23;10.50;39.30
26035;DHT22;13809;48.632;11.576;2024-02-28T22:57:28;10.50;39.40
26035;DHT22;13809;48.632;11.576;2024-02-28T23:02:31;10.50;39.40
26035;DHT22;13809;48.632;11.576;2024-02-28T23:07:34;10.50;39.40
26035;DHT22;13809;48.632;11.576;2024-02-28T23:12:41;10.60;39.40
26035;DHT22;13809;48.632;11.576;2024-02-28T23:17:44;10.60;39.50
26035;DHT22;13809;48.632;11.576;2024-02-28T23:22:48;10.60;39.20
26035;DHT22;13809;48.632;11.576;2024-02-28T23:27:54;10.60;39.10
26035;DHT22;13809;48.632;11.576;2024-02-28T23:32:57;10.50;39.10
26035;DHT22;13809;48.632;11.576;2024-02-28T23:38:02;10.50;39.20
26035;DHT22;13809;48.632;11.576;2024-02-28T23:43:08;10.40;39.30
26035;DHT22;13809;48.632;11.576;2024-02-28T23:48:11;10.40;39.60
26035;DHT22;13809;48.632;11.576;2024-02-28T23:53:15;10.40;39.50
26035;DHT22;13809;48.632;11.576;2024-02-28T23:58:19;10.40;39.50
